Terminal Aerodrome Forecast
Issued by NWS Huntsville, AL

Home | Current Version | Previous Version | Text Only | Print | Product List | Glossary On
Versions: 1 2 3 4 5 6 7 8 9 10 11 12 13 14 15 16 17 18 19 20
000
FTUS44 KHUN 170520
TAFMSL
TAF
KMSL 170520Z 1706/1806 18011KT P6SM SCT030 BKN060
     FM170900 18011KT P6SM VCSH SCT025 OVC050
     FM171500 20011KT P6SM -SHRA SCT007 OVC012=

USA.gov is the U.S. government's official web portal to all federal, state and local government web resources and services.